createdAt,value
2022-12-09T00:02:59.553Z,5.56
2022-12-09T00:08:18.353Z,5.61
2022-12-09T00:13:22.923Z,5.60
2022-12-09T00:18:28.006Z,5.60
2022-12-09T00:23:32.001Z,5.60
2022-12-09T00:34:11.607Z,5.58
2022-12-09T00:39:37.898Z,5.60
2022-12-09T00:44:42.259Z,5.59
2022-12-09T00:49:46.527Z,5.55
2022-12-09T01:00:12.500Z,5.52
2022-12-09T01:05:22.204Z,5.52
2022-12-09T01:10:26.601Z,5.57
2022-12-09T01:15:30.864Z,5.63
2022-12-09T01:20:38.315Z,5.71
2022-12-09T01:25:42.901Z,5.76
2022-12-09T01:31:03.749Z,5.78
2022-12-09T01:36:17.611Z,5.75
2022-12-09T01:41:22.722Z,5.71
2022-12-09T01:47:23.031Z,5.67
2022-12-09T01:57:50.548Z,5.61
2022-12-09T02:03:07.706Z,5.61
2022-12-09T02:08:19.676Z,5.59
2022-12-09T02:13:38.769Z,5.56
2022-12-09T02:18:58.860Z,5.59
2022-12-09T02:24:24.108Z,5.60
2022-12-09T02:29:50.016Z,5.58
2022-12-09T02:35:16.245Z,5.58
2022-12-09T02:40:51.054Z,5.55
2022-12-09T02:45:58.118Z,5.50
2022-12-09T02:51:09.738Z,5.48
2022-12-09T02:56:16.360Z,5.39
2022-12-09T03:01:35.661Z,5.46
2022-12-09T03:06:46.183Z,5.62
2022-12-09T03:11:55.719Z,5.64
2022-12-09T03:17:26.718Z,5.63
2022-12-09T03:22:36.418Z,5.62
2022-12-09T03:27:54.148Z,5.58
2022-12-09T03:33:03.886Z,5.54
2022-12-09T03:38:13.058Z,5.54
2022-12-09T03:43:27.036Z,5.49
2022-12-09T03:48:31.911Z,5.43
2022-12-09T03:53:57.133Z,5.38
2022-12-09T03:59:05.474Z,5.36
2022-12-09T04:04:16.115Z,5.40
2022-12-09T04:09:26.415Z,5.42
2022-12-09T04:14:30.556Z,5.39
2022-12-09T04:19:34.843Z,5.33
2022-12-09T04:24:39.037Z,5.31
2022-12-09T04:29:46.423Z,5.26
2022-12-09T04:34:50.736Z,5.26
2022-12-09T04:39:56.397Z,5.30
2022-12-09T04:45:03.152Z,5.26
2022-12-09T04:50:08.378Z,5.19
2022-12-09T04:55:28.557Z,5.15
2022-12-09T05:00:42.773Z,5.15
2022-12-09T05:05:47.184Z,5.22
2022-12-09T05:16:26.454Z,5.16
2022-12-09T05:21:30.781Z,5.05
2022-12-09T05:26:40.046Z,4.95
2022-12-09T05:31:44.214Z,4.86
2022-12-09T05:36:53.037Z,4.75
2022-12-09T05:42:09.357Z,4.62
2022-12-09T05:47:27.058Z,4.51
2022-12-09T05:52:31.776Z,4.43
2022-12-09T05:57:37.958Z,4.31
2022-12-09T06:02:42.592Z,4.16
2022-12-09T06:07:46.543Z,4.14
2022-12-09T06:12:53.840Z,4.15
2022-12-09T06:17:58.127Z,4.16
2022-12-09T06:23:08.633Z,4.13
2022-12-09T06:28:15.076Z,4.06
2022-12-09T06:33:52.611Z,3.98
2022-12-09T06:38:46.153Z,3.93
2022-12-09T06:44:04.197Z,3.87
2022-12-09T06:49:16.009Z,3.83
2022-12-09T06:54:23.101Z,3.75
2022-12-09T06:59:29.953Z,3.74
2022-12-09T07:04:34.344Z,3.72
2022-12-09T07:09:41.550Z,3.70
2022-12-09T07:14:46.864Z,3.67
2022-12-09T07:19:51.951Z,3.61
2022-12-09T07:24:56.750Z,3.56
2022-12-09T07:30:08.191Z,3.61
2022-12-09T07:35:15.452Z,3.65
2022-12-09T07:40:28.039Z,3.74
2022-12-09T07:45:35.003Z,3.85
2022-12-09T07:51:05.541Z,3.90
2022-12-09T07:56:32.212Z,3.93
2022-12-09T08:01:47.958Z,3.99
2022-12-09T08:08:01.104Z,4.00
2022-12-09T08:13:09.069Z,4.00
2022-12-09T08:18:31.784Z,4.03
2022-12-09T08:23:45.864Z,4.05
2022-12-09T08:28:51.644Z,4.09
2022-12-09T08:34:01.525Z,4.14
2022-12-09T08:39:07.787Z,4.16
2022-12-09T08:44:20.244Z,4.21
2022-12-09T08:49:34.838Z,4.35
2022-12-09T08:54:38.915Z,4.51
2022-12-09T08:59:45.465Z,4.67
2022-12-09T09:04:50.135Z,4.84
2022-12-09T09:09:58.255Z,4.97
2022-12-09T09:15:03.820Z,5.10
2022-12-09T09:20:12.362Z,5.20
2022-12-09T09:25:19.085Z,5.29
2022-12-09T09:30:25.395Z,5.35
2022-12-09T09:36:13.005Z,5.49
2022-12-09T09:41:27.042Z,5.65
2022-12-09T09:47:05.450Z,5.79
2022-12-09T09:52:26.137Z,5.94
2022-12-09T09:58:11.046Z,6.07
2022-12-09T10:04:22.065Z,6.23
2022-12-09T10:10:02.058Z,6.42
2022-12-09T10:15:31.540Z,6.58
2022-12-09T10:20:48.017Z,6.76
2022-12-09T10:25:57.811Z,7.01
2022-12-09T10:31:03.644Z,7.13
2022-12-09T10:36:38.108Z,7.20
2022-12-09T10:42:34.801Z,7.20
2022-12-09T10:47:49.838Z,7.15
2022-12-09T10:52:56.116Z,7.08
2022-12-09T10:58:17.900Z,7.06
2022-12-09T11:09:27.215Z,7.16
2022-12-09T11:14:53.267Z,7.25
2022-12-09T11:20:26.387Z,7.36
2022-12-09T11:25:50.408Z,7.50
2022-12-09T11:36:42.247Z,7.59
2022-12-09T11:42:16.131Z,7.56
2022-12-09T11:48:25.891Z,7.53
2022-12-09T11:53:34.435Z,7.51
2022-12-09T11:59:16.850Z,7.56
2022-12-09T12:05:08.303Z,7.60
2022-12-09T12:10:30.558Z,7.57
2022-12-09T12:16:07.831Z,7.49
2022-12-09T12:27:55.264Z,7.38
2022-12-09T12:39:29.854Z,7.24
2022-12-09T12:46:34.044Z,7.18
2022-12-09T12:52:04.187Z,7.13
2022-12-09T12:57:26.728Z,7.10
2022-12-09T13:02:47.827Z,7.04
2022-12-09T13:08:02.583Z,7.01
2022-12-09T13:13:19.532Z,7.03
2022-12-09T13:18:35.682Z,7.08
2022-12-09T13:24:08.823Z,7.05
2022-12-09T13:29:51.501Z,7.01
2022-12-09T13:35:05.719Z,6.96
2022-12-09T13:40:24.817Z,6.92
2022-12-09T13:45:37.669Z,6.87
2022-12-09T13:50:44.406Z,6.84
2022-12-09T13:56:07.203Z,6.81
2022-12-09T14:08:01.803Z,6.78
2022-12-09T14:13:26.959Z,6.79
2022-12-09T14:18:50.439Z,6.77
2022-12-09T14:24:11.598Z,6.73
2022-12-09T14:30:01.825Z,6.69
2022-12-09T14:35:12.977Z,6.65
2022-12-09T14:40:51.026Z,6.64
2022-12-09T14:46:01.146Z,6.58
2022-12-09T14:51:16.194Z,6.51
2022-12-09T15:01:50.200Z,6.39
2022-12-09T15:07:23.327Z,6.35
2022-12-09T15:12:48.014Z,6.18
2022-12-09T15:18:31.641Z,6.04
2022-12-09T15:23:45.847Z,5.88
2022-12-09T15:28:55.742Z,5.74
2022-12-09T15:34:26.286Z,5.61
2022-12-09T15:39:59.478Z,5.54
2022-12-09T15:45:12.097Z,5.46
2022-12-09T15:50:18.840Z,5.37
2022-12-09T15:55:42.733Z,5.28
2022-12-09T16:00:52.522Z,5.25
2022-12-09T16:11:41.730Z,5.25
2022-12-09T16:16:53.023Z,5.41
2022-12-09T16:22:01.332Z,5.29
2022-12-09T16:27:06.247Z,5.18
2022-12-09T16:32:34.734Z,5.08
2022-12-09T16:37:42.269Z,4.94
2022-12-09T16:42:48.621Z,4.90
2022-12-09T16:47:56.761Z,4.89
2022-12-09T16:53:00.904Z,4.77
2022-12-09T16:58:05.530Z,4.65
2022-12-09T17:03:16.036Z,4.61
2022-12-09T17:08:19.785Z,4.59
2022-12-09T17:13:23.575Z,4.53
2022-12-09T17:18:28.783Z,4.47
2022-12-09T17:23:39.395Z,4.43
2022-12-09T17:28:45.286Z,4.46
2022-12-09T17:33:49.853Z,4.48
2022-12-09T17:38:53.643Z,4.50
2022-12-09T17:43:58.060Z,4.49
2022-12-09T17:49:15.093Z,4.46
2022-12-09T17:54:32.276Z,4.41
2022-12-09T17:59:38.971Z,4.36
2022-12-09T18:04:43.283Z,4.30
2022-12-09T18:09:54.609Z,4.25
2022-12-09T18:14:58.589Z,4.22
2022-12-09T18:20:02.406Z,4.18
2022-12-09T18:25:08.098Z,4.14
2022-12-09T18:30:13.705Z,4.10
2022-12-09T18:35:17.655Z,4.11
2022-12-09T18:40:24.440Z,4.17
2022-12-09T18:45:28.159Z,4.22
2022-12-09T18:50:31.668Z,4.25
2022-12-09T18:55:41.854Z,4.25
2022-12-09T19:00:48.918Z,4.24
2022-12-09T19:05:52.850Z,4.20
2022-12-09T19:10:57.861Z,4.20
2022-12-09T19:16:10.338Z,4.26
2022-12-09T19:21:19.955Z,4.20
2022-12-09T19:26:26.431Z,4.16
2022-12-09T19:31:35.644Z,4.13
2022-12-09T19:36:40.068Z,4.09
2022-12-09T19:41:44.751Z,4.12
2022-12-09T19:46:50.595Z,4.16
2022-12-09T19:51:55.055Z,4.20
2022-12-09T19:56:58.822Z,4.25
2022-12-09T20:02:02.320Z,4.25
2022-12-09T20:07:08.338Z,4.26
2022-12-09T20:12:12.725Z,4.23
2022-12-09T20:17:20.024Z,4.18
2022-12-09T20:22:23.869Z,4.16
2022-12-09T20:27:30.526Z,4.14
2022-12-09T20:37:58.630Z,4.10
2022-12-09T20:43:05.081Z,4.09
2022-12-09T20:48:08.887Z,4.18
2022-12-09T20:53:12.590Z,4.40
2022-12-09T20:58:16.287Z,4.40
2022-12-09T21:03:20.279Z,4.39
2022-12-09T21:08:45.269Z,4.36
2022-12-09T21:13:52.284Z,4.31
2022-12-09T21:18:59.439Z,4.26
2022-12-09T21:24:06.313Z,4.22
2022-12-09T21:29:11.949Z,4.25
2022-12-09T21:34:15.595Z,4.21
2022-12-09T21:39:19.951Z,4.14
2022-12-09T21:51:25.068Z,4.03
2022-12-09T21:58:27.058Z,4.05
2022-12-09T22:03:14.667Z,4.09
2022-12-09T22:09:01.759Z,4.10
2022-12-09T22:14:29.453Z,4.10
2022-12-09T22:19:43.458Z,4.09
2022-12-09T22:24:50.185Z,4.14
2022-12-09T22:29:53.199Z,4.14
2022-12-09T22:34:57.151Z,4.27
2022-12-09T22:40:00.230Z,4.22
2022-12-09T22:45:05.387Z,4.14
2022-12-09T22:50:09.182Z,4.08
2022-12-09T22:55:12.585Z,4.00
2022-12-09T23:00:15.982Z,4.00
2022-12-09T23:05:19.196Z,4.05
2022-12-09T23:10:22.595Z,4.11
2022-12-09T23:15:25.865Z,4.12
2022-12-09T23:20:29.517Z,4.12
2022-12-09T23:37:28.665Z,4.03
